Time;durP1;ratioP1;P1;durP2;ratioP2;P2;SDS_P1;SDS_P2;PMS_P1;PMS_P2;Temp;Humidity;BMP_temperature;BMP_pressure;BME280_temperature;BME280_humidity;BME280_pressure;Samples;Min_cycle;Max_cycle;Signal;HPM_P1;HPM_P2
2022/09/29 00:19:45;;;;;;;7.68;4.25;;;;;;;16.28;75.56;98473.22;4431744;32;35732;-77
2022/09/29 00:22:13;;;;;;;7.87;4.47;;;;;;;16.19;76.38;98474.09;4438864;32;33785;-77
2022/09/29 00:24:40;;;;;;;7.65;4.07;;;;;;;16.20;76.08;98475.81;4438968;32;33553;-78
2022/09/29 00:27:07;;;;;;;8.10;4.45;;;;;;;15.83;78.11;98469.69;4434800;32;34433;-77
2022/09/29 00:29:35;;;;;;;7.28;4.03;;;;;;;15.99;77.54;98462.75;4433862;32;33578;-78
2022/09/29 00:32:02;;;;;;;7.37;3.90;;;;;;;16.03;77.31;98465.38;4439205;32;34076;-78
2022/09/29 00:34:30;;;;;;;7.30;4.25;;;;;;;15.98;77.43;98461.03;4439599;32;34366;-77
2022/09/29 00:36:57;;;;;;;7.55;4.30;;;;;;;15.91;77.85;98468.81;4438673;32;33771;-78
2022/09/29 00:39:25;;;;;;;7.82;4.53;;;;;;;16.10;76.85;98463.63;4438626;32;33785;-78
2022/09/29 00:41:52;;;;;;;8.57;4.65;;;;;;;15.97;77.50;98462.72;4437698;32;34117;-77
2022/09/29 00:44:20;;;;;;;8.77;4.30;;;;;;;15.97;77.04;98461.87;4434441;32;33423;-77
2022/09/29 00:46:53;;;;;;;6.95;4.22;;;;;;;15.81;77.82;98451.41;4433880;32;34861;-77
2022/09/29 00:49:33;;;;;;;8.40;4.40;;;;;;;15.94;77.34;98454.06;4436670;32;33778;-77
2022/09/29 00:52:13;;;;;;;10.02;4.55;;;;;;;15.97;77.15;98454.91;4430397;32;33777;-77
2022/09/29 00:54:45;;;;;;;10.90;4.80;;;;;;;15.40;78.85;98469.53;4410866;32;33320;-78
2022/09/29 00:57:14;;;;;;;8.68;4.30;;;;;;;15.20;81.13;98478.13;4423717;32;33893;-77
2022/09/29 00:59:53;;;;;;;8.73;4.60;;;;;;;16.03;76.28;98472.31;4426995;32;34034;-77
2022/09/29 01:02:21;;;;;;;9.48;4.78;;;;;;;15.76;77.56;98470.53;4425354;32;33394;-78
2022/09/29 01:04:51;;;;;;;10.82;5.28;;;;;;;15.38;79.01;98461.69;4411394;32;32067;-77
2022/09/29 01:07:22;;;;;;;8.18;4.57;;;;;;;15.23;80.44;98454.66;4438432;32;34376;-78
2022/09/29 01:09:51;;;;;;;9.27;5.28;;;;;;;15.49;79.45;98454.78;4425618;32;33195;-77
2022/09/29 01:12:19;;;;;;;9.15;4.97;;;;;;;15.51;79.55;98452.16;4424934;32;33650;-77
2022/09/29 01:14:47;;;;;;;8.57;5.50;;;;;;;15.92;77.63;98447.06;4439746;32;33424;-77
2022/09/29 01:17:15;;;;;;;8.57;4.43;;;;;;;15.79;78.23;98442.69;4438351;32;33877;-78
2022/09/29 01:19:51;;;;;;;9.93;4.47;;;;;;;16.52;74.98;98446.22;4424872;32;33861;-76
2022/09/29 01:22:28;;;;;;;9.23;4.93;;;;;;;16.51;74.25;98444.47;4407223;32;32718;-77
2022/09/29 01:25:14;;;;;;;9.75;4.78;;;;;;;16.37;74.61;98441.00;4437539;32;33119;-78
2022/09/29 01:27:44;;;;;;;8.82;5.18;;;;;;;15.60;77.98;98451.31;4439092;32;34468;-78
2022/09/29 01:30:17;;;;;;;10.43;5.93;;;;;;;14.01;87.29;98455.53;4425285;32;33940;-78
2022/09/29 01:33:10;;;;;;;11.75;5.78;;;;;;;14.01;88.67;98452.06;4409938;32;32381;-77
2022/09/29 01:36:29;;;;;;;12.18;5.75;;;;;;;14.28;87.17;98444.47;4422161;32;33552;-77
2022/09/29 01:39:00;;;;;;;12.77;5.18;;;;;;;14.38;85.94;98444.56;4400292;32;34723;-78
2022/09/29 01:41:27;;;;;;;11.00;5.85;;;;;;;13.74;89.82;98446.59;4434838;32;33048;-78
2022/09/29 01:44:10;;;;;;;10.52;6.30;;;;;;;13.74;90.20;98432.72;4429853;32;33922;-77
2022/09/29 01:46:47;;;;;;;9.68;5.37;;;;;;;14.15;88.48;98435.69;4438830;32;34324;-78
2022/09/29 01:49:15;;;;;;;8.65;5.20;;;;;;;14.25;87.47;98436.63;4423711;32;33573;-78
2022/09/29 01:51:51;;;;;;;11.45;5.93;;;;;;;14.31;86.97;98436.69;4422125;32;33716;-78
2022/09/29 01:54:23;;;;;;;9.45;5.68;;;;;;;14.36;86.51;98424.56;4438197;32;33907;-78
2022/09/29 01:57:02;;;;;;;12.18;5.93;;;;;;;14.32;86.77;98422.81;4416229;32;33519;-76
2022/09/29 01:59:40;;;;;;;11.95;6.25;;;;;;;14.89;83.89;98419.72;4422420;32;33993;-77
2022/09/29 02:02:11;;;;;;;9.43;5.57;;;;;;;15.29;82.13;98422.50;4423802;32;34719;-78
2022/09/29 02:04:53;;;;;;;15.70;6.60;;;;;;;15.81;78.64;98416.59;4422342;32;34136;-78
2022/09/29 02:07:41;;;;;;;14.20;6.20;;;;;;;14.80;82.89;98422.28;4432844;32;33923;-77
2022/09/29 02:10:14;;;;;;;9.70;5.53;;;;;;;14.62;84.67;98418.72;4419260;32;33830;-77
2022/09/29 02:12:43;;;;;;;10.65;5.68;;;;;;;13.94;88.01;98414.66;4424515;32;33933;-78
2022/09/29 02:15:15;;;;;;;11.43;6.05;;;;;;;13.63;90.26;98423.91;4419399;32;33952;-77
2022/09/29 02:17:44;;;;;;;11.60;6.28;;;;;;;13.39;92.17;98425.41;4423874;32;34468;-77
2022/09/29 02:20:13;;;;;;;11.80;5.75;;;;;;;13.12;94.64;98431.97;4422823;32;34809;-77
2022/09/29 02:22:40;;;;;;;11.52;6.12;;;;;;;13.37;93.57;98427.12;4434460;32;34541;-77
2022/09/29 02:25:10;;;;;;;10.88;6.53;;;;;;;13.33;94.13;98425.34;4437826;32;33748;-77
2022/09/29 02:27:38;;;;;;;11.10;6.45;;;;;;;13.25;94.41;98427.81;4423046;32;33623;-77
2022/09/29 02:30:07;;;;;;;10.73;6.43;;;;;;;13.18;95.58;98426.84;4421144;32;33325;-77
2022/09/29 02:32:35;;;;;;;11.32;6.78;;;;;;;13.22;95.72;98438.16;4423720;32;33869;-76
2022/09/29 02:35:05;;;;;;;13.25;6.90;;;;;;;13.15;96.08;98437.22;4417796;32;33745;-78
2022/09/29 02:37:35;;;;;;;13.32;6.60;;;;;;;13.14;96.30;98440.66;4439353;32;33463;-77
2022/09/29 02:40:46;;;;;;;13.38;7.05;;;;;;;13.08;96.42;98455.31;4427693;32;33063;-76
2022/09/29 02:43:23;;;;;;;12.68;7.35;;;;;;;12.98;98.74;98456.94;4431651;32;34598;-78
2022/09/29 02:46:28;;;;;;;13.10;7.35;;;;;;;13.10;98.01;98454.47;4424161;32;33672;-77
2022/09/29 02:49:08;;;;;;;12.73;7.62;;;;;;;12.94;99.87;98468.13;4434096;32;33385;-78
2022/09/29 02:51:40;;;;;;;14.45;7.57;;;;;;;12.93;100.00;98466.38;4423772;32;33797;-78
2022/09/29 02:54:24;;;;;;;14.15;7.18;;;;;;;13.35;97.24;98476.50;4415724;32;33943;-78
2022/09/29 02:57:30;;;;;;;12.52;7.78;;;;;;;14.23;92.47;98468.75;4422317;32;33918;-78
2022/09/29 03:00:09;;;;;;;11.75;6.80;;;;;;;14.96;87.71;98465.81;4375638;32;33204;-78
2022/09/29 03:02:37;;;;;;;12.45;6.70;;;;;;;15.12;86.44;98469.37;4361380;32;32522;-79
2022/09/29 03:05:08;;;;;;;14.27;6.70;;;;;;;15.61;83.63;98463.50;4399423;32;32506;-78
2022/09/29 03:07:37;;;;;;;12.77;6.62;;;;;;;16.05;80.42;98465.34;4425180;32;34523;-78
2022/09/29 03:10:06;;;;;;;9.80;6.43;;;;;;;16.07;80.00;98458.41;4426167;32;33191;-79
2022/09/29 03:12:34;;;;;;;12.40;6.45;;;;;;;15.66;81.42;98472.22;4438115;32;33931;-79
2022/09/29 03:15:02;;;;;;;10.98;6.30;;;;;;;16.14;79.01;98452.31;4437602;32;34754;-79
2022/09/29 03:17:30;;;;;;;14.35;6.37;;;;;;;16.41;77.19;98451.44;4423254;32;33713;-79
2022/09/29 03:19:57;;;;;;;11.60;6.30;;;;;;;16.42;76.88;98452.34;4437851;32;34547;-78
2022/09/29 03:22:25;;;;;;;13.15;6.05;;;;;;;16.44;76.42;98453.22;4425410;32;33872;-79
2022/09/29 03:24:52;;;;;;;13.68;6.70;;;;;;;16.45;76.28;98457.56;4437642;32;33680;-79
2022/09/29 03:27:20;;;;;;;11.43;6.07;;;;;;;16.48;76.51;98449.72;4424610;32;33094;-78
2022/09/29 03:29:49;;;;;;;9.15;5.60;;;;;;;16.49;76.38;98451.44;4439118;32;34008;-79
2022/09/29 03:32:17;;;;;;;11.38;6.12;;;;;;;16.76;75.19;98445.31;4425268;32;34574;-78
2022/09/29 03:34:44;;;;;;;12.65;6.00;;;;;;;16.15;77.79;98442.72;4437463;32;34685;-78
2022/09/29 03:37:12;;;;;;;11.18;6.68;;;;;;;16.02;78.36;98444.47;4437121;32;34324;-78
2022/09/29 03:39:39;;;;;;;10.93;6.03;;;;;;;16.58;76.43;98425.31;4438788;32;34164;-79
2022/09/29 03:42:06;;;;;;;13.20;6.60;;;;;;;15.80;79.07;98423.56;4439854;32;34360;-78
2022/09/29 03:44:34;;;;;;;12.80;6.75;;;;;;;15.47;81.06;98425.19;4432033;32;33885;-78
2022/09/29 03:47:01;;;;;;;11.95;6.80;;;;;;;15.47;81.06;98419.97;4436528;32;34312;-78
2022/09/29 03:49:29;;;;;;;15.15;6.57;;;;;;;15.38;81.66;98427.78;4436710;32;34232;-78
2022/09/29 03:51:57;;;;;;;12.45;6.97;;;;;;;14.89;84.82;98424.94;4432041;32;34456;-78
2022/09/29 03:54:26;;;;;;;11.55;7.20;;;;;;;15.20;84.03;98415.53;4436004;32;34427;-78
2022/09/29 03:56:53;;;;;;;14.27;7.00;;;;;;;15.52;82.16;98402.56;4436585;32;34639;-78
2022/09/29 03:59:21;;;;;;;12.37;7.72;;;;;;;15.57;81.91;98404.31;4436431;32;33640;-78
2022/09/29 04:01:49;;;;;;;15.27;9.27;;;;;;;15.65;81.56;98402.63;4434380;32;33829;-78
2022/09/29 04:04:16;;;;;;;13.15;6.97;;;;;;;15.25;83.54;98412.94;4438441;32;34447;-78
2022/09/29 04:06:44;;;;;;;12.25;6.65;;;;;;;14.90;85.25;98411.03;4437601;32;34558;-78
2022/09/29 04:09:11;;;;;;;12.00;7.40;;;;;;;14.62;87.39;98405.69;4425171;32;33271;-78
2022/09/29 04:11:39;;;;;;;12.57;7.37;;;;;;;14.30;89.77;98403.69;4438264;32;34078;-78
2022/09/29 04:14:06;;;;;;;14.68;8.30;;;;;;;14.44;89.02;98405.53;4423784;32;33379;-78
2022/09/29 04:16:34;;;;;;;14.13;7.80;;;;;;;14.60;88.13;98403.91;4439606;32;33636;-78
2022/09/29 04:19:02;;;;;;;13.20;7.12;;;;;;;14.60;88.05;98399.56;4424619;32;33429;-77
2022/09/29 04:21:29;;;;;;;14.57;7.97;;;;;;;14.19;90.35;98407.94;4438981;32;33715;-77
2022/09/29 04:23:57;;;;;;;13.57;7.45;;;;;;;14.57;88.75;98412.59;4438006;32;34612;-78
2022/09/29 04:26:24;;;;;;;14.75;7.90;;;;;;;15.28;85.57;98412.97;4438820;32;33832;-78
2022/09/29 04:28:52;;;;;;;12.35;7.28;;;;;;;15.81;82.32;98399.19;4438514;32;33894;-78
2022/09/29 04:31:19;;;;;;;11.98;7.60;;;;;;;15.90;81.33;98399.19;4438185;32;34529;-78
2022/09/29 04:33:47;;;;;;;13.55;7.85;;;;;;;15.61;82.63;98406.97;4437579;32;34089;-78
2022/09/29 04:36:14;;;;;;;12.77;7.45;;;;;;;15.66;82.42;98404.34;4438461;32;33891;-78
2022/09/29 04:38:42;;;;;;;14.52;7.35;;;;;;;15.76;82.02;98406.16;4438740;32;33397;-78
2022/09/29 04:41:09;;;;;;;11.80;7.22;;;;;;;15.95;80.89;98406.16;4438247;32;33792;-78
2022/09/29 04:43:37;;;;;;;12.65;7.75;;;;;;;15.60;82.48;98406.94;4437336;32;34453;-78
2022/09/29 04:46:06;;;;;;;13.07;7.68;;;;;;;15.63;82.38;98414.78;4437774;32;34666;-78
2022/09/29 04:48:34;;;;;;;13.35;7.70;;;;;;;15.71;81.96;98413.94;4432670;32;33432;-78
2022/09/29 04:51:03;;;;;;;12.18;7.12;;;;;;;15.62;82.34;98411.28;4437620;32;33917;-78
2022/09/29 04:53:31;;;;;;;12.43;7.35;;;;;;;15.58;82.61;98411.28;4436275;32;33910;-78
2022/09/29 04:56:03;;;;;;;11.70;7.35;;;;;;;15.95;80.42;98407.03;4437835;32;34598;-78
2022/09/29 04:58:31;;;;;;;13.88;7.95;;;;;;;16.01;80.49;98407.06;4436834;32;33198;-78
2022/09/29 05:01:11;;;;;;;11.30;6.80;;;;;;;15.99;80.53;98407.91;4438325;32;33501;-78
2022/09/29 05:03:39;;;;;;;16.12;9.38;;;;;;;15.39;83.47;98419.06;4436150;32;34730;-77
2022/09/29 05:06:08;;;;;;;16.02;9.07;;;;;;;14.95;86.48;98438.03;4436629;32;34192;-78
2022/09/29 05:08:36;;;;;;;16.87;9.05;;;;;;;15.73;82.69;98419.19;4423349;32;33693;-78
2022/09/29 05:11:07;;;;;;;19.23;10.18;;;;;;;16.70;77.25;98416.56;4435650;32;33791;-78
2022/09/29 05:13:35;;;;;;;18.05;9.75;;;;;;;15.96;79.65;98423.59;4423742;32;34496;-78
2022/09/29 05:16:03;;;;;;;23.17;12.37;;;;;;;14.48;89.10;98438.53;4433975;32;33857;-78
2022/09/29 05:18:31;;;;;;;22.58;12.10;;;;;;;14.22;92.72;98439.22;4438549;32;33209;-78
2022/09/29 05:21:06;;;;;;;21.35;12.20;;;;;;;15.16;87.60;98437.22;4437342;32;33941;-78
2022/09/29 05:23:54;;;;;;;21.83;12.35;;;;;;;16.05;81.43;98420.97;4438339;32;33777;-78
2022/09/29 05:26:22;;;;;;;20.55;11.90;;;;;;;15.02;85.89;98431.94;4439022;32;34606;-78
2022/09/29 05:28:49;;;;;;;20.62;12.55;;;;;;;14.21;91.82;98440.06;4438672;32;34048;-77
2022/09/29 05:31:17;;;;;;;19.48;11.77;;;;;;;13.57;97.89;98441.19;4437996;32;33836;-78
2022/09/29 05:33:45;;;;;;;22.52;12.15;;;;;;;14.88;91.09;98436.22;4436877;32;33458;-78
2022/09/29 05:36:13;;;;;;;21.25;11.82;;;;;;;15.78;83.75;98434.84;4431065;32;34070;-78
2022/09/29 05:38:40;;;;;;;24.17;13.65;;;;;;;15.52;84.24;98444.31;4435647;32;33535;-78
2022/09/29 05:41:10;;;;;;;21.73;12.20;;;;;;;13.67;96.16;98446.50;4423446;32;34151;-78
2022/09/29 05:43:39;;;;;;;17.73;10.90;;;;;;;13.89;96.24;98443.28;4434392;32;34026;-77
2022/09/29 05:46:08;;;;;;;19.00;10.18;;;;;;;13.73;97.13;98451.75;4433430;32;34635;-77
2022/09/29 05:48:35;;;;;;;18.33;9.43;;;;;;;13.54;98.83;98455.91;4438368;32;34352;-77
2022/09/29 05:51:09;;;;;;;18.02;9.85;;;;;;;13.63;97.73;98450.78;4443504;32;33669;-76
2022/09/29 05:53:37;;;;;;;17.42;9.32;;;;;;;13.61;98.62;98462.06;4435975;32;33564;-76
2022/09/29 05:56:16;;;;;;;18.30;9.05;;;;;;;13.55;99.54;98463.72;4437363;32;33740;-77
2022/09/29 05:58:43;;;;;;;15.40;8.27;;;;;;;14.07;95.10;98467.72;4438193;32;34150;-77
2022/09/29 06:01:14;;;;;;;13.80;8.10;;;;;;;14.21;95.07;98455.69;4437479;32;33893;-76
2022/09/29 06:03:42;;;;;;;14.63;7.47;;;;;;;15.06;87.89;98465.00;4439305;32;33172;-77
2022/09/29 06:06:15;;;;;;;11.50;6.90;;;;;;;14.72;88.12;98464.81;4438451;32;33743;-77
2022/09/29 06:08:43;;;;;;;12.50;7.20;;;;;;;14.68;90.69;98468.28;4424351;32;33937;-77
2022/09/29 06:11:15;;;;;;;12.82;7.28;;;;;;;13.39;98.21;98467.00;4436142;32;33583;-78
2022/09/29 06:13:47;;;;;;;10.38;6.75;;;;;;;13.24;99.77;98472.84;4433672;32;33945;-76
2022/09/29 06:16:16;;;;;;;13.62;6.57;;;;;;;13.39;98.39;98469.63;4437399;32;34396;-74
2022/09/29 06:18:45;;;;;;;8.98;4.68;;;;;;;13.90;96.33;98470.16;4421069;32;33156;-74
2022/09/29 06:21:15;;;;;;;7.05;3.90;;;;;;;13.49;97.74;98476.66;4433702;32;33416;-74
2022/09/29 06:23:43;;;;;;;7.22;3.70;;;;;;;13.22;98.54;98484.09;4415830;32;32786;-74
2022/09/29 06:26:13;;;;;;;5.50;2.92;;;;;;;13.85;95.07;98472.72;4430920;32;34582;-74
2022/09/29 06:28:40;;;;;;;6.47;2.70;;;;;;;13.44;95.80;98485.25;4431918;32;34223;-74
2022/09/29 06:31:11;;;;;;;4.65;2.90;;;;;;;12.71;100.00;98489.47;4437214;32;34093;-74
2022/09/29 06:33:39;;;;;;;5.50;2.75;;;;;;;13.07;99.20;98489.97;4416827;32;34571;-75
2022/09/29 06:39:04;;;;;;;5.53;2.03;;;;;;;12.68;100.00;98492.00;4434430;32;34281;-75
2022/09/29 06:41:31;;;;;;;4.75;2.80;;;;;;;12.45;100.00;98493.38;4421090;32;34755;-75
2022/09/29 06:43:59;;;;;;;7.35;5.57;;;;;;;12.66;100.00;98505.81;4424146;32;33415;-75
2022/09/29 06:46:27;;;;;;;9.90;5.90;;;;;;;12.38;100.00;98502.75;4419649;32;32425;-75
2022/09/29 06:48:55;;;;;;;9.80;6.03;;;;;;;12.15;100.00;98502.41;4437860;32;33425;-76
2022/09/29 06:51:24;;;;;;;8.90;5.00;;;;;;;12.77;100.00;98501.69;4438133;32;33985;-75
2022/09/29 06:54:05;;;;;;;5.82;2.80;;;;;;;12.66;99.90;98493.72;4435326;32;33900;-75
2022/09/29 06:56:39;;;;;;;3.78;2.00;;;;;;;13.34;96.44;98502.50;4434406;32;34013;-75
2022/09/29 06:59:07;;;;;;;5.37;2.60;;;;;;;13.28;97.28;98499.78;4436454;32;32963;-75
2022/09/29 07:01:35;;;;;;;4.53;2.58;;;;;;;12.70;100.00;98495.50;4437044;32;34433;-76
2022/09/29 07:04:02;;;;;;;3.03;1.60;;;;;;;12.31;100.00;98501.81;4437101;32;34821;-75
2022/09/29 07:06:30;;;;;;;5.05;1.62;;;;;;;13.60;94.60;98504.53;4437634;32;33995;-75
2022/09/29 07:08:58;;;;;;;3.45;1.77;;;;;;;13.31;94.74;98515.47;4438425;32;33346;-75
2022/09/29 07:11:26;;;;;;;3.17;1.58;;;;;;;12.98;95.47;98519.31;4424138;32;34698;-75
2022/09/29 07:13:53;;;;;;;3.30;1.67;;;;;;;12.74;99.48;98512.88;4438211;32;33792;-75
2022/09/29 07:16:22;;;;;;;4.00;1.48;;;;;;;13.48;94.56;98524.38;4437945;32;34131;-75
2022/09/29 07:18:50;;;;;;;4.55;1.90;;;;;;;13.49;92.73;98526.09;4422129;32;33628;-76
2022/09/29 07:21:18;;;;;;;5.07;1.92;;;;;;;13.46;93.19;98510.47;4423327;32;33865;-76
2022/09/29 07:23:46;;;;;;;3.78;1.62;;;;;;;13.57;91.33;98514.03;4430768;32;34565;-76
2022/09/29 07:26:19;;;;;;;4.05;1.65;;;;;;;13.55;90.74;98510.56;4421829;32;32466;-75
2022/09/29 07:28:47;;;;;;;3.53;1.98;;;;;;;13.58;91.21;98522.75;4433215;32;33166;-75
2022/09/29 07:31:17;;;;;;;3.85;1.90;;;;;;;13.66;91.20;98523.69;4432774;32;33781;-75
2022/09/29 07:33:47;;;;;;;4.07;2.20;;;;;;;13.79;91.44;98524.72;4434819;32;32961;-77
2022/09/29 07:36:16;;;;;;;4.43;1.80;;;;;;;14.21;91.54;98533.81;4438180;32;33951;-76
2022/09/29 07:38:48;;;;;;;2.55;1.42;;;;;;;13.54;92.99;98534.84;4438542;32;33477;-76
2022/09/29 07:41:18;;;;;;;3.25;1.48;;;;;;;14.26;90.09;98537.34;4437909;32;33782;-76
2022/09/29 07:43:45;;;;;;;2.62;1.48;;;;;;;14.55;87.27;98539.34;4439258;32;33999;-76
2022/09/29 07:46:13;;;;;;;3.83;1.60;;;;;;;14.49;87.49;98545.37;4437773;32;34602;-75
2022/09/29 07:48:41;;;;;;;3.67;1.65;;;;;;;13.06;96.64;98550.63;4433144;32;33476;-74
2022/09/29 07:51:12;;;;;;;4.10;1.87;;;;;;;13.35;94.77;98551.06;4436543;32;34192;-73
2022/09/29 07:53:39;;;;;;;4.95;2.05;;;;;;;13.39;97.39;98563.25;4419998;32;33249;-74
2022/09/29 07:56:09;;;;;;;3.45;2.03;;;;;;;14.42;91.92;98554.00;4434243;32;33823;-74
2022/09/29 07:58:37;;;;;;;5.85;3.40;;;;;;;14.65;89.16;98562.06;4430864;32;32632;-75
2022/09/29 08:01:09;;;;;;;5.55;2.97;;;;;;;14.00;92.13;98565.72;4436531;32;34412;-74
2022/09/29 08:03:39;;;;;;;3.50;2.10;;;;;;;14.29;92.73;98553.03;4436754;32;34012;-74
2022/09/29 08:06:07;;;;;;;4.75;2.20;;;;;;;13.89;90.94;98557.81;4423436;32;34113;-75
2022/09/29 08:08:36;;;;;;;4.25;1.90;;;;;;;13.97;93.98;98550.09;4437623;32;33516;-75
2022/09/29 08:11:08;;;;;;;3.55;1.98;;;;;;;14.03;94.38;98552.75;4433580;32;34385;-75
2022/09/29 08:13:47;;;;;;;4.10;1.90;;;;;;;13.88;93.83;98560.37;4421877;32;34745;-75
2022/09/29 08:16:14;;;;;;;3.33;1.60;;;;;;;14.98;88.28;98547.53;4412052;32;32126;-75
2022/09/29 08:18:42;;;;;;;3.92;2.17;;;;;;;15.58;83.21;98553.09;4434625;32;33407;-75
2022/09/29 08:21:11;;;;;;;2.83;1.55;;;;;;;14.96;86.70;98564.03;4430597;32;33906;-75
2022/09/29 08:23:40;;;;;;;4.68;2.05;;;;;;;14.13;92.59;98570.22;4435795;32;33861;-75
2022/09/29 08:26:11;;;;;;;2.58;1.35;;;;;;;14.12;92.01;98576.28;4434240;32;34559;-75
2022/09/29 08:28:39;;;;;;;3.22;1.60;;;;;;;13.65;96.49;98573.13;4420474;32;31911;-75
2022/09/29 08:31:09;;;;;;;2.55;1.20;;;;;;;14.14;92.71;98569.38;4423512;32;33896;-75
2022/09/29 08:33:36;;;;;;;2.97;1.30;;;;;;;14.27;93.71;98575.56;4437535;32;33651;-75
2022/09/29 08:36:13;;;;;;;2.83;1.30;;;;;;;14.02;95.12;98581.38;4434787;32;33908;-75
2022/09/29 08:38:43;;;;;;;2.08;1.10;;;;;;;14.52;93.07;98583.63;4436512;32;34118;-75
2022/09/29 08:41:33;;;;;;;4.80;1.50;;;;;;;14.60;90.18;98578.50;4439803;32;34463;-75
2022/09/29 08:44:06;;;;;;;1.80;0.98;;;;;;;15.57;86.17;98576.56;4427643;32;33795;-75
2022/09/29 08:46:47;;;;;;;1.70;0.80;;;;;;;14.98;86.07;98568.41;4438542;32;33859;-75
2022/09/29 08:49:27;;;;;;;1.45;0.70;;;;;;;14.82;86.95;98566.56;4434914;32;33246;-75
2022/09/29 08:52:09;;;;;;;1.17;0.60;;;;;;;15.10;87.24;98576.31;4423246;32;33467;-76
2022/09/29 08:54:46;;;;;;;1.52;0.75;;;;;;;15.00;86.14;98571.88;4438877;32;34882;-75
2022/09/29 08:57:17;;;;;;;1.45;0.50;;;;;;;15.31;85.29;98579.91;4435097;32;33653;-76
2022/09/29 08:59:56;;;;;;;1.50;0.80;;;;;;;14.97;85.81;98590.13;4422630;32;34115;-75
2022/09/29 09:02:28;;;;;;;2.42;1.05;;;;;;;15.52;83.62;98600.06;4425962;32;34040;-75
2022/09/29 09:05:08;;;;;;;2.65;0.80;;;;;;;15.71;84.81;98596.66;4421466;32;34397;-77
2022/09/29 09:07:58;;;;;;;1.62;0.73;;;;;;;16.43;78.77;98589.97;4437915;32;34271;-75
2022/09/29 09:10:46;;;;;;;1.08;0.60;;;;;;;16.66;75.32;98588.25;4434522;32;33012;-75
2022/09/29 09:13:19;;;;;;;2.15;0.80;;;;;;;16.83;75.41;98597.91;4437819;32;32325;-75
2022/09/29 09:16:28;;;;;;;1.65;1.00;;;;;;;16.59;76.63;98594.38;4437089;32;33723;-74
2022/09/29 09:19:08;;;;;;;1.48;0.68;;;;;;;15.51;82.00;98601.78;4367431;32;33920;-75
2022/09/29 09:21:41;;;;;;;1.25;0.60;;;;;;;15.81;82.76;98599.37;4419707;32;34065;-75
2022/09/29 09:24:25;;;;;;;2.03;1.00;;;;;;;16.63;77.33;98606.56;4423662;32;33965;-75
2022/09/29 09:26:53;;;;;;;1.48;0.70;;;;;;;16.04;78.19;98620.34;4421704;32;33872;-74
2022/09/29 09:29:31;;;;;;;1.62;0.60;;;;;;;16.05;80.45;98622.06;4407652;32;33799;-76
2022/09/29 09:32:35;;;;;;;1.73;0.90;;;;;;;16.46;77.52;98613.50;4423169;32;33987;-76
2022/09/29 09:35:23;;;;;;;1.60;0.90;;;;;;;16.03;78.94;98613.37;4433562;32;33985;-76
2022/09/29 09:37:53;;;;;;;0.90;0.57;;;;;;;16.92;75.22;98610.97;4419970;32;33828;-76
2022/09/29 09:40:24;;;;;;;1.50;0.68;;;;;;;16.51;77.89;98614.37;4422927;32;33878;-75
2022/09/29 09:42:59;;;;;;;1.83;1.10;;;;;;;16.70;75.87;98608.28;4411522;32;34214;-76
2022/09/29 09:45:35;;;;;;;1.02;0.77;;;;;;;16.45;76.74;98619.59;4431022;32;33807;-78
2022/09/29 09:48:07;;;;;;;3.62;0.90;;;;;;;16.34;76.23;98631.75;4415182;32;33906;-77
2022/09/29 09:50:38;;;;;;;1.83;0.90;;;;;;;17.36;73.46;98620.53;4434907;32;34621;-74
2022/09/29 09:53:14;;;;;;;4.57;1.00;;;;;;;18.03;70.24;98623.88;4439442;32;33323;-77
2022/09/29 09:55:42;;;;;;;2.00;0.90;;;;;;;17.81;71.11;98618.69;4417580;32;34677;-79
2022/09/29 09:58:48;;;;;;;1.30;0.80;;;;;;;17.81;70.44;98616.06;4424198;32;33957;-76
2022/09/29 10:01:15;;;;;;;;;;;;;;;18.39;67.26;98607.09;4435363;32;33765;-79
2022/09/29 10:03:44;;;;;;;1.50;0.80;;;;;;;17.92;70.00;98607.31;4431121;32;32811;-79
2022/09/29 10:06:12;;;;;;;2.17;1.00;;;;;;;17.51;72.95;98597.81;4410103;32;34416;-80
2022/09/29 10:08:41;;;;;;;1.20;0.70;;;;;;;17.06;72.44;98596.16;4422238;32;34671;-79
2022/09/29 10:11:17;;;;;;;2.45;1.00;;;;;;;17.32;72.05;98608.31;4418580;32;33894;-80
2022/09/29 10:13:46;;;;;;;1.83;0.88;;;;;;;17.75;69.89;98612.59;4422714;32;33283;-81
2022/09/29 10:16:23;;;;;;;1.50;0.70;;;;;;;18.48;69.59;98627.13;4418616;32;34180;-79
2022/09/29 10:18:54;;;;;;;1.10;0.70;;;;;;;18.20;67.93;98614.19;4422705;32;33050;-79
2022/09/29 10:21:26;;;;;;;2.40;0.93;;;;;;;18.62;65.37;98606.94;4419587;32;33928;-79
2022/09/29 10:23:54;;;;;;;1.45;0.60;;;;;;;19.20;66.16;98600.41;4432456;32;33760;-81
2022/09/29 10:26:45;;;;;;;2.33;0.80;;;;;;;18.45;66.42;98606.19;4417197;32;33815;-80
2022/09/29 10:29:33;;;;;;;1.42;0.70;;;;;;;19.55;63.42;98611.44;4428272;32;33781;-80
2022/09/29 10:32:04;;;;;;;1.33;0.50;;;;;;;19.07;64.03;98616.28;4425766;32;33313;-81
2022/09/29 10:34:36;;;;;;;1.33;0.52;;;;;;;18.89;62.47;98626.03;4435863;32;33536;-80
2022/09/29 10:37:16;;;;;;;1.05;0.40;;;;;;;20.19;59.06;98621.22;4421003;32;33089;-78
2022/09/29 10:39:47;;;;;;;1.75;0.60;;;;;;;20.93;56.44;98607.00;4420977;32;33838;-77
2022/09/29 10:42:34;;;;;;;0.80;0.40;;;;;;;20.94;56.51;98608.75;4429512;32;34887;-79
2022/09/29 10:45:12;;;;;;;0.80;0.47;;;;;;;21.37;54.49;98613.28;4422610;32;33412;-78
2022/09/29 10:47:44;;;;;;;5.30;0.45;;;;;;;21.10;56.96;98616.41;4406971;32;34969;-79
2022/09/29 10:50:21;;;;;;;1.30;0.50;;;;;;;21.82;52.33;98612.47;4432296;32;33431;-80
2022/09/29 10:52:57;;;;;;;0.93;0.32;;;;;;;21.52;53.87;98611.31;4422192;32;34388;-80
2022/09/29 10:55:35;;;;;;;0.77;0.37;;;;;;;19.40;59.38;98618.56;4411520;32;33701;-78
2022/09/29 10:58:34;;;;;;;0.80;0.40;;;;;;;19.76;59.31;98627.00;4420915;32;33896;-78
2022/09/29 11:01:22;;;;;;;0.65;0.35;;;;;;;19.21;58.84;98625.75;4423691;32;34550;-78
2022/09/29 11:03:54;;;;;;;1.08;0.40;;;;;;;18.59;62.42;98634.94;4425278;32;34404;-78
2022/09/29 11:06:32;;;;;;;1.67;0.60;;;;;;;18.92;59.75;98628.63;4424864;32;33414;-79
2022/09/29 11:09:00;;;;;;;2.15;0.57;;;;;;;18.70;62.87;98626.97;4422440;32;33892;-79
2022/09/29 11:11:34;;;;;;;2.17;0.60;;;;;;;18.23;66.07;98627.28;4439866;32;33776;-78
2022/09/29 11:14:02;;;;;;;0.80;0.40;;;;;;;19.16;62.42;98624.03;4428051;32;34099;-78
2022/09/29 11:16:35;;;;;;;1.90;0.40;;;;;;;18.45;64.28;98635.03;4422409;32;33274;-80
2022/09/29 11:19:04;;;;;;;2.27;0.40;;;;;;;18.15;63.41;98641.28;4433997;32;34533;-78
2022/09/29 11:21:41;;;;;;;1.10;0.30;;;;;;;17.88;62.79;98641.38;4418057;32;32198;-79
2022/09/29 11:24:43;;;;;;;1.15;0.40;;;;;;;17.56;63.36;98640.56;4429125;32;34305;-78
2022/09/29 11:27:18;;;;;;;1.17;0.40;;;;;;;17.44;65.32;98644.97;4423933;32;31851;-80
2022/09/29 11:30:10;;;;;;;0.90;0.40;;;;;;;18.09;64.74;98650.03;4421938;32;33889;-79
2022/09/29 11:32:53;;;;;;;1.10;0.40;;;;;;;18.67;61.26;98641.00;4418918;32;33233;-78
2022/09/29 11:35:32;;;;;;;0.77;0.40;;;;;;;18.44;62.32;98635.91;4438374;32;34719;-78
2022/09/29 11:38:09;;;;;;;1.40;0.57;;;;;;;19.20;60.16;98629.28;4437053;32;33502;-78
2022/09/29 11:40:47;;;;;;;1.02;0.30;;;;;;;19.03;61.08;98634.66;4438886;32;33818;-78
2022/09/29 11:43:28;;;;;;;1.45;0.50;;;;;;;18.07;64.88;98636.09;4437535;32;33793;-78
2022/09/29 11:45:55;;;;;;;1.08;0.50;;;;;;;18.11;64.96;98643.03;4437795;32;34515;-78
2022/09/29 11:48:36;;;;;;;1.87;0.60;;;;;;;17.69;67.41;98643.16;4438277;32;33323;-79
2022/09/29 11:51:15;;;;;;;1.80;0.60;;;;;;;18.20;68.04;98645.63;4439122;32;33376;-78
2022/09/29 11:54:09;;;;;;;0.90;0.40;;;;;;;17.78;66.98;98644.87;4423707;32;33250;-78
2022/09/29 11:56:50;;;;;;;1.33;0.60;;;;;;;19.22;64.75;98647.62;4432598;32;34115;-78
2022/09/29 11:59:56;;;;;;;1.35;0.40;;;;;;;19.43;61.61;98652.69;4439727;32;34935;-78
2022/09/29 12:02:30;;;;;;;1.80;0.50;;;;;;;17.59;67.86;98656.28;4420159;32;33922;-79
2022/09/29 12:05:34;;;;;;;1.12;0.40;;;;;;;18.84;65.01;98651.44;4439073;32;34552;-78
2022/09/29 12:08:05;;;;;;;4.18;0.43;;;;;;;19.24;63.03;98653.75;4404485;32;33666;-79
2022/09/29 12:10:44;;;;;;;3.70;0.85;;;;;;;18.84;65.28;98656.66;4436621;32;33160;-79
2022/09/29 12:13:37;;;;;;;0.70;0.40;;;;;;;18.38;67.37;98662.16;4438662;32;33823;-78
2022/09/29 12:16:12;;;;;;;0.70;0.40;;;;;;;19.62;62.18;98637.63;4411499;32;32304;-79
2022/09/29 12:18:53;;;;;;;1.37;0.40;;;;;;;20.14;57.85;98640.56;4423788;32;33670;-78